sensor_id;sensor_type;location;lat;lon;timestamp;temperature;humidity
3406;DHT22;10008;48.682;9.016;2023-12-20T00:00:57;6.30;99.90
3406;DHT22;10008;48.682;9.016;2023-12-20T00:03:23;6.40;99.90
3406;DHT22;10008;48.682;9.016;2023-12-20T00:05:49;6.40;99.90
3406;DHT22;10008;48.682;9.016;2023-12-20T00:08:15;6.40;99.90
3406;DHT22;10008;48.682;9.016;2023-12-20T00:10:41;6.20;99.90
3406;DHT22;10008;48.682;9.016;2023-12-20T00:13:07;6.40;99.90
3406;DHT22;10008;48.682;9.016;2023-12-20T00:15:33;6.40;99.90
3406;DHT22;10008;48.682;9.016;2023-12-20T00:17:59;6.40;99.90
3406;DHT22;10008;48.682;9.016;2023-12-20T00:20:26;6.40;99.90
3406;DHT22;10008;48.682;9.016;2023-12-20T00:22:57;6.30;99.90
3406;DHT22;10008;48.682;9.016;2023-12-20T00:25:23;6.20;99.90
3406;DHT22;10008;48.682;9.016;2023-12-20T00:27:49;6.10;99.90
3406;DHT22;10008;48.682;9.016;2023-12-20T00:30:16;6.10;99.90
3406;DHT22;10008;48.682;9.016;2023-12-20T00:32:41;6.00;99.90
3406;DHT22;10008;48.682;9.016;2023-12-20T00:35:13;6.00;99.90
3406;DHT22;10008;48.682;9.016;2023-12-20T00:37:39;6.00;99.90
3406;DHT22;10008;48.682;9.016;2023-12-20T00:40:05;6.00;99.90
3406;DHT22;10008;48.682;9.016;2023-12-20T00:42:31;5.90;99.90
3406;DHT22;10008;48.682;9.016;2023-12-20T00:44:58;5.80;99.90
3406;DHT22;10008;48.682;9.016;2023-12-20T00:47:24;5.80;99.90
3406;DHT22;10008;48.682;9.016;2023-12-20T00:49:50;5.80;99.90
3406;DHT22;10008;48.682;9.016;2023-12-20T00:52:16;5.80;99.90
3406;DHT22;10008;48.682;9.016;2023-12-20T00:54:43;5.70;99.90
3406;DHT22;10008;48.682;9.016;2023-12-20T00:57:09;5.80;99.90
3406;DHT22;10008;48.682;9.016;2023-12-20T00:59:35;5.80;99.90
3406;DHT22;10008;48.682;9.016;2023-12-20T01:02:01;5.80;99.90
3406;DHT22;10008;48.682;9.016;2023-12-20T01:04:26;5.70;99.90
3406;DHT22;10008;48.682;9.016;2023-12-20T01:06:52;5.70;99.90
3406;DHT22;10008;48.682;9.016;2023-12-20T01:09:18;5.70;99.90
3406;DHT22;10008;48.682;9.016;2023-12-20T01:11:44;5.70;99.90
3406;DHT22;10008;48.682;9.016;2023-12-20T01:14:12;5.60;99.90
3406;DHT22;10008;48.682;9.016;2023-12-20T01:16:38;5.60;99.90
3406;DHT22;10008;48.682;9.016;2023-12-20T01:19:03;5.60;99.90
3406;DHT22;10008;48.682;9.016;2023-12-20T01:21:29;5.60;99.90
3406;DHT22;10008;48.682;9.016;2023-12-20T01:23:55;5.60;99.90
3406;DHT22;10008;48.682;9.016;2023-12-20T01:26:21;5.60;99.90
3406;DHT22;10008;48.682;9.016;2023-12-20T01:28:47;5.60;99.90
3406;DHT22;10008;48.682;9.016;2023-12-20T01:31:12;5.60;99.90
3406;DHT22;10008;48.682;9.016;2023-12-20T01:33:38;5.60;99.90
3406;DHT22;10008;48.682;9.016;2023-12-20T01:36:04;5.60;99.90
3406;DHT22;10008;48.682;9.016;2023-12-20T01:38:30;5.60;99.90
3406;DHT22;10008;48.682;9.016;2023-12-20T01:40:56;5.60;99.90
3406;DHT22;10008;48.682;9.016;2023-12-20T01:43:21;5.60;99.90
3406;DHT22;10008;48.682;9.016;2023-12-20T01:45:47;5.60;99.90
3406;DHT22;10008;48.682;9.016;2023-12-20T01:48:15;5.60;99.90
3406;DHT22;10008;48.682;9.016;2023-12-20T01:50:41;5.60;99.90
3406;DHT22;10008;48.682;9.016;2023-12-20T01:53:09;5.60;99.90
3406;DHT22;10008;48.682;9.016;2023-12-20T01:55:39;5.60;99.90
3406;DHT22;10008;48.682;9.016;2023-12-20T01:58:06;5.60;99.90
3406;DHT22;10008;48.682;9.016;2023-12-20T02:00:32;5.70;99.90
3406;DHT22;10008;48.682;9.016;2023-12-20T02:03:01;5.60;99.90
3406;DHT22;10008;48.682;9.016;2023-12-20T02:05:30;5.60;99.90
3406;DHT22;10008;48.682;9.016;2023-12-20T02:07:56;5.60;99.90
3406;DHT22;10008;48.682;9.016;2023-12-20T02:10:21;5.70;99.90
3406;DHT22;10008;48.682;9.016;2023-12-20T02:12:47;5.70;99.90
3406;DHT22;10008;48.682;9.016;2023-12-20T02:15:13;5.60;99.90
3406;DHT22;10008;48.682;9.016;2023-12-20T02:17:39;5.60;99.90
3406;DHT22;10008;48.682;9.016;2023-12-20T02:20:06;5.70;99.90
3406;DHT22;10008;48.682;9.016;2023-12-20T02:22:32;5.70;99.90
3406;DHT22;10008;48.682;9.016;2023-12-20T02:24:57;5.60;99.90
3406;DHT22;10008;48.682;9.016;2023-12-20T02:27:23;5.60;99.90
3406;DHT22;10008;48.682;9.016;2023-12-20T02:29:50;5.60;99.90
3406;DHT22;10008;48.682;9.016;2023-12-20T02:32:19;5.60;99.90
3406;DHT22;10008;48.682;9.016;2023-12-20T02:34:47;5.60;99.90
3406;DHT22;10008;48.682;9.016;2023-12-20T02:37:13;5.60;99.90
3406;DHT22;10008;48.682;9.016;2023-12-20T02:39:39;5.60;99.90
3406;DHT22;10008;48.682;9.016;2023-12-20T02:42:05;5.60;99.90
3406;DHT22;10008;48.682;9.016;2023-12-20T02:44:30;5.60;99.90
3406;DHT22;10008;48.682;9.016;2023-12-20T02:46:56;5.60;99.90
3406;DHT22;10008;48.682;9.016;2023-12-20T02:49:22;5.60;99.90
3406;DHT22;10008;48.682;9.016;2023-12-20T02:51:47;5.60;99.90
3406;DHT22;10008;48.682;9.016;2023-12-20T02:54:13;5.60;99.90
3406;DHT22;10008;48.682;9.016;2023-12-20T02:56:39;5.60;99.90
3406;DHT22;10008;48.682;9.016;2023-12-20T02:59:05;5.50;99.90
3406;DHT22;10008;48.682;9.016;2023-12-20T03:01:31;5.50;99.90
3406;DHT22;10008;48.682;9.016;2023-12-20T03:03:57;5.60;99.90
3406;DHT22;10008;48.682;9.016;2023-12-20T03:06:23;5.60;99.90
3406;DHT22;10008;48.682;9.016;2023-12-20T03:08:49;5.60;99.90
3406;DHT22;10008;48.682;9.016;2023-12-20T03:11:14;5.60;99.90
3406;DHT22;10008;48.682;9.016;2023-12-20T03:13:40;5.60;99.90
3406;DHT22;10008;48.682;9.016;2023-12-20T03:16:12;5.60;99.90
3406;DHT22;10008;48.682;9.016;2023-12-20T03:18:39;5.60;99.90
3406;DHT22;10008;48.682;9.016;2023-12-20T03:21:05;5.60;99.90
3406;DHT22;10008;48.682;9.016;2023-12-20T03:23:31;5.60;99.90
3406;DHT22;10008;48.682;9.016;2023-12-20T03:26:00;5.60;99.90
3406;DHT22;10008;48.682;9.016;2023-12-20T03:28:29;6.00;99.90
3406;DHT22;10008;48.682;9.016;2023-12-20T03:30:55;5.60;99.90
3406;DHT22;10008;48.682;9.016;2023-12-20T03:33:21;5.60;99.90
3406;DHT22;10008;48.682;9.016;2023-12-20T03:35:46;5.60;99.90
3406;DHT22;10008;48.682;9.016;2023-12-20T03:38:12;5.60;99.90
3406;DHT22;10008;48.682;9.016;2023-12-20T03:40:38;5.50;99.90
3406;DHT22;10008;48.682;9.016;2023-12-20T03:43:03;5.50;99.90
3406;DHT22;10008;48.682;9.016;2023-12-20T03:45:29;5.40;99.90
3406;DHT22;10008;48.682;9.016;2023-12-20T03:47:55;5.40;99.90
3406;DHT22;10008;48.682;9.016;2023-12-20T03:50:25;5.40;99.90
3406;DHT22;10008;48.682;9.016;2023-12-20T03:52:51;5.40;99.90
3406;DHT22;10008;48.682;9.016;2023-12-20T03:55:17;5.40;99.90
3406;DHT22;10008;48.682;9.016;2023-12-20T03:57:43;5.40;99.90
3406;DHT22;10008;48.682;9.016;2023-12-20T04:00:09;5.30;99.90
3406;DHT22;10008;48.682;9.016;2023-12-20T04:02:38;5.30;99.90
3406;DHT22;10008;48.682;9.016;2023-12-20T04:05:04;5.40;99.90
3406;DHT22;10008;48.682;9.016;2023-12-20T04:07:30;5.40;99.90
3406;DHT22;10008;48.682;9.016;2023-12-20T04:09:56;5.40;99.90
3406;DHT22;10008;48.682;9.016;2023-12-20T04:12:22;5.30;99.90
3406;DHT22;10008;48.682;9.016;2023-12-20T04:14:48;5.30;99.90
3406;DHT22;10008;48.682;9.016;2023-12-20T04:17:15;5.30;99.90
3406;DHT22;10008;48.682;9.016;2023-12-20T04:19:41;5.30;99.90
3406;DHT22;10008;48.682;9.016;2023-12-20T04:22:07;5.20;99.90
3406;DHT22;10008;48.682;9.016;2023-12-20T04:24:33;5.20;99.90
3406;DHT22;10008;48.682;9.016;2023-12-20T04:26:59;5.20;99.90
3406;DHT22;10008;48.682;9.016;2023-12-20T04:29:24;5.10;99.90
3406;DHT22;10008;48.682;9.016;2023-12-20T04:31:50;5.10;99.90
3406;DHT22;10008;48.682;9.016;2023-12-20T04:34:17;5.10;99.90
3406;DHT22;10008;48.682;9.016;2023-12-20T04:36:43;5.10;99.90
3406;DHT22;10008;48.682;9.016;2023-12-20T04:39:09;5.10;99.90
3406;DHT22;10008;48.682;9.016;2023-12-20T04:41:35;5.40;99.90
3406;DHT22;10008;48.682;9.016;2023-12-20T04:44:01;4.80;99.90
3406;DHT22;10008;48.682;9.016;2023-12-20T04:46:27;5.10;99.90
3406;DHT22;10008;48.682;9.016;2023-12-20T04:48:52;5.60;99.90
3406;DHT22;10008;48.682;9.016;2023-12-20T04:51:18;5.00;99.90
3406;DHT22;10008;48.682;9.016;2023-12-20T04:53:44;5.00;99.90
3406;DHT22;10008;48.682;9.016;2023-12-20T04:56:09;5.00;99.90
3406;DHT22;10008;48.682;9.016;2023-12-20T04:58:35;5.10;99.90
3406;DHT22;10008;48.682;9.016;2023-12-20T05:01:01;5.00;99.90
3406;DHT22;10008;48.682;9.016;2023-12-20T05:03:27;5.10;99.90
3406;DHT22;10008;48.682;9.016;2023-12-20T05:05:52;5.10;99.90
3406;DHT22;10008;48.682;9.016;2023-12-20T05:08:18;5.60;99.90
3406;DHT22;10008;48.682;9.016;2023-12-20T05:10:44;5.10;99.90
3406;DHT22;10008;48.682;9.016;2023-12-20T05:13:10;5.10;99.90
3406;DHT22;10008;48.682;9.016;2023-12-20T05:15:36;5.10;99.90
3406;DHT22;10008;48.682;9.016;2023-12-20T05:18:02;5.10;99.90
3406;DHT22;10008;48.682;9.016;2023-12-20T05:20:27;5.10;99.90
3406;DHT22;10008;48.682;9.016;2023-12-20T05:22:53;5.20;99.90
3406;DHT22;10008;48.682;9.016;2023-12-20T05:25:19;5.20;99.90
3406;DHT22;10008;48.682;9.016;2023-12-20T05:27:45;5.20;99.90
3406;DHT22;10008;48.682;9.016;2023-12-20T05:30:11;5.30;99.90
3406;DHT22;10008;48.682;9.016;2023-12-20T05:32:37;5.30;99.90
3406;DHT22;10008;48.682;9.016;2023-12-20T05:35:02;5.40;99.90
3406;DHT22;10008;48.682;9.016;2023-12-20T05:37:28;5.50;99.90
3406;DHT22;10008;48.682;9.016;2023-12-20T05:39:54;5.40;99.90
3406;DHT22;10008;48.682;9.016;2023-12-20T05:42:20;5.40;99.90
3406;DHT22;10008;48.682;9.016;2023-12-20T05:44:46;5.40;99.90
3406;DHT22;10008;48.682;9.016;2023-12-20T05:47:11;5.40;99.90
3406;DHT22;10008;48.682;9.016;2023-12-20T05:49:37;5.30;99.90
3406;DHT22;10008;48.682;9.016;2023-12-20T05:52:03;5.30;99.90
3406;DHT22;10008;48.682;9.016;2023-12-20T05:54:29;5.30;99.90
3406;DHT22;10008;48.682;9.016;2023-12-20T05:56:55;5.30;99.90
3406;DHT22;10008;48.682;9.016;2023-12-20T05:59:20;5.30;99.90
3406;DHT22;10008;48.682;9.016;2023-12-20T06:01:46;5.20;99.90
3406;DHT22;10008;48.682;9.016;2023-12-20T06:04:12;5.20;99.90
3406;DHT22;10008;48.682;9.016;2023-12-20T06:06:44;5.20;99.90
3406;DHT22;10008;48.682;9.016;2023-12-20T06:09:10;5.30;99.90
3406;DHT22;10008;48.682;9.016;2023-12-20T06:11:36;5.30;99.90
3406;DHT22;10008;48.682;9.016;2023-12-20T06:14:01;5.30;99.90
3406;DHT22;10008;48.682;9.016;2023-12-20T06:16:27;5.20;99.90
3406;DHT22;10008;48.682;9.016;2023-12-20T06:18:53;5.20;99.90
3406;DHT22;10008;48.682;9.016;2023-12-20T06:21:18;5.20;99.90
3406;DHT22;10008;48.682;9.016;2023-12-20T06:23:44;5.20;99.90
3406;DHT22;10008;48.682;9.016;2023-12-20T06:26:10;5.20;99.90
3406;DHT22;10008;48.682;9.016;2023-12-20T06:28:36;5.20;99.90
3406;DHT22;10008;48.682;9.016;2023-12-20T06:31:02;5.10;99.90
3406;DHT22;10008;48.682;9.016;2023-12-20T06:33:28;5.10;99.90
3406;DHT22;10008;48.682;9.016;2023-12-20T06:35:56;5.20;99.90
3406;DHT22;10008;48.682;9.016;2023-12-20T06:38:22;5.50;99.90
3406;DHT22;10008;48.682;9.016;2023-12-20T06:40:48;5.20;99.90
3406;DHT22;10008;48.682;9.016;2023-12-20T06:43:14;5.20;99.90
3406;DHT22;10008;48.682;9.016;2023-12-20T06:45:39;5.20;99.90
3406;DHT22;10008;48.682;9.016;2023-12-20T06:48:06;5.10;99.90
3406;DHT22;10008;48.682;9.016;2023-12-20T06:50:32;5.10;99.90
3406;DHT22;10008;48.682;9.016;2023-12-20T06:52:58;5.10;99.90
3406;DHT22;10008;48.682;9.016;2023-12-20T06:55:24;5.20;99.90
3406;DHT22;10008;48.682;9.016;2023-12-20T06:57:49;5.30;99.90
3406;DHT22;10008;48.682;9.016;2023-12-20T07:00:15;5.30;99.90
3406;DHT22;10008;48.682;9.016;2023-12-20T07:02:41;5.30;99.90
3406;DHT22;10008;48.682;9.016;2023-12-20T07:05:07;5.20;99.90
3406;DHT22;10008;48.682;9.016;2023-12-20T07:07:33;5.30;99.90
3406;DHT22;10008;48.682;9.016;2023-12-20T07:09:59;5.70;99.90
3406;DHT22;10008;48.682;9.016;2023-12-20T07:12:24;5.30;99.90
3406;DHT22;10008;48.682;9.016;2023-12-20T07:14:50;5.20;99.90
3406;DHT22;10008;48.682;9.016;2023-12-20T07:17:16;5.20;99.90
3406;DHT22;10008;48.682;9.016;2023-12-20T07:19:42;5.30;99.90
3406;DHT22;10008;48.682;9.016;2023-12-20T07:22:08;5.30;99.90
3406;DHT22;10008;48.682;9.016;2023-12-20T07:24:34;5.30;99.90
3406;DHT22;10008;48.682;9.016;2023-12-20T07:27:02;5.30;99.90
3406;DHT22;10008;48.682;9.016;2023-12-20T07:29:28;5.20;99.90
3406;DHT22;10008;48.682;9.016;2023-12-20T07:31:54;5.20;99.90
3406;DHT22;10008;48.682;9.016;2023-12-20T07:34:20;5.30;99.90
3406;DHT22;10008;48.682;9.016;2023-12-20T07:36:46;5.30;99.90
3406;DHT22;10008;48.682;9.016;2023-12-20T07:39:14;5.30;99.90
3406;DHT22;10008;48.682;9.016;2023-12-20T07:41:39;5.20;99.90
3406;DHT22;10008;48.682;9.016;2023-12-20T07:44:06;5.20;99.90
3406;DHT22;10008;48.682;9.016;2023-12-20T07:46:31;5.50;99.90
3406;DHT22;10008;48.682;9.016;2023-12-20T07:48:57;5.30;99.90
3406;DHT22;10008;48.682;9.016;2023-12-20T07:51:23;5.20;99.90
3406;DHT22;10008;48.682;9.016;2023-12-20T07:53:49;5.20;99.90
3406;DHT22;10008;48.682;9.016;2023-12-20T07:56:18;5.20;99.90
3406;DHT22;10008;48.682;9.016;2023-12-20T07:58:45;5.20;99.90
3406;DHT22;10008;48.682;9.016;2023-12-20T08:01:12;5.30;99.90
3406;DHT22;10008;48.682;9.016;2023-12-20T08:03:38;5.70;99.90
3406;DHT22;10008;48.682;9.016;2023-12-20T08:06:04;5.40;99.90
3406;DHT22;10008;48.682;9.016;2023-12-20T08:08:30;5.30;99.90
3406;DHT22;10008;48.682;9.016;2023-12-20T08:10:56;5.20;99.90
3406;DHT22;10008;48.682;9.016;2023-12-20T08:13:26;5.20;99.90
3406;DHT22;10008;48.682;9.016;2023-12-20T08:15:52;5.20;99.90
3406;DHT22;10008;48.682;9.016;2023-12-20T08:18:18;5.50;99.90
3406;DHT22;10008;48.682;9.016;2023-12-20T08:20:44;5.30;99.90
3406;DHT22;10008;48.682;9.016;2023-12-20T08:23:10;5.40;99.90
3406;DHT22;10008;48.682;9.016;2023-12-20T08:25:35;5.40;99.90
3406;DHT22;10008;48.682;9.016;2023-12-20T08:28:05;5.40;99.90
3406;DHT22;10008;48.682;9.016;2023-12-20T08:30:30;5.30;99.90
3406;DHT22;10008;48.682;9.016;2023-12-20T08:33:00;5.40;99.90
3406;DHT22;10008;48.682;9.016;2023-12-20T08:35:26;5.40;99.90
3406;DHT22;10008;48.682;9.016;2023-12-20T08:37:52;5.30;99.90
3406;DHT22;10008;48.682;9.016;2023-12-20T08:40:17;5.30;99.90
3406;DHT22;10008;48.682;9.016;2023-12-20T08:42:43;5.30;99.90
3406;DHT22;10008;48.682;9.016;2023-12-20T08:45:10;5.20;99.90
3406;DHT22;10008;48.682;9.016;2023-12-20T08:47:35;5.10;99.90
3406;DHT22;10008;48.682;9.016;2023-12-20T08:50:02;5.10;99.90
3406;DHT22;10008;48.682;9.016;2023-12-20T08:52:28;5.00;99.90
3406;DHT22;10008;48.682;9.016;2023-12-20T08:54:55;5.10;99.90
3406;DHT22;10008;48.682;9.016;2023-12-20T08:57:21;5.00;99.90
3406;DHT22;10008;48.682;9.016;2023-12-20T08:59:49;5.00;99.90
3406;DHT22;10008;48.682;9.016;2023-12-20T09:02:16;4.90;99.90
3406;DHT22;10008;48.682;9.016;2023-12-20T09:04:42;4.90;99.90
3406;DHT22;10008;48.682;9.016;2023-12-20T09:07:26;4.70;99.90
3406;DHT22;10008;48.682;9.016;2023-12-20T09:09:53;4.60;99.90
3406;DHT22;10008;48.682;9.016;2023-12-20T09:12:19;4.50;99.90
3406;DHT22;10008;48.682;9.016;2023-12-20T09:14:49;4.50;99.90
3406;DHT22;10008;48.682;9.016;2023-12-20T09:17:16;4.50;99.90
3406;DHT22;10008;48.682;9.016;2023-12-20T09:19:42;4.50;99.90
3406;DHT22;10008;48.682;9.016;2023-12-20T09:22:09;4.40;99.90
3406;DHT22;10008;48.682;9.016;2023-12-20T09:24:35;4.40;99.90
3406;DHT22;10008;48.682;9.016;2023-12-20T09:27:01;4.40;99.90
3406;DHT22;10008;48.682;9.016;2023-12-20T09:29:27;4.30;99.90
3406;DHT22;10008;48.682;9.016;2023-12-20T09:31:52;4.70;99.90
3406;DHT22;10008;48.682;9.016;2023-12-20T09:34:18;4.40;99.90
3406;DHT22;10008;48.682;9.016;2023-12-20T09:36:44;4.40;99.90
3406;DHT22;10008;48.682;9.016;2023-12-20T09:39:19;4.40;99.90
3406;DHT22;10008;48.682;9.016;2023-12-20T09:42:00;4.40;99.90
3406;DHT22;10008;48.682;9.016;2023-12-20T09:44:27;4.50;99.90
3406;DHT22;10008;48.682;9.016;2023-12-20T09:46:53;4.50;99.90
3406;DHT22;10008;48.682;9.016;2023-12-20T09:49:20;4.60;99.90
3406;DHT22;10008;48.682;9.016;2023-12-20T09:51:46;4.70;99.90
3406;DHT22;10008;48.682;9.016;2023-12-20T09:54:17;4.80;99.90
3406;DHT22;10008;48.682;9.016;2023-12-20T09:56:46;5.00;99.90
3406;DHT22;10008;48.682;9.016;2023-12-20T09:59:12;5.10;99.90
3406;DHT22;10008;48.682;9.016;2023-12-20T10:01:42;5.50;99.90
3406;DHT22;10008;48.682;9.016;2023-12-20T10:04:09;5.70;99.90
3406;DHT22;10008;48.682;9.016;2023-12-20T10:06:44;5.80;99.90
3406;DHT22;10008;48.682;9.016;2023-12-20T10:09:10;5.90;99.90
3406;DHT22;10008;48.682;9.016;2023-12-20T10:11:37;6.10;99.90
3406;DHT22;10008;48.682;9.016;2023-12-20T10:14:04;6.20;99.90
3406;DHT22;10008;48.682;9.016;2023-12-20T10:16:30;6.10;99.90
3406;DHT22;10008;48.682;9.016;2023-12-20T10:18:56;6.00;99.90
3406;DHT22;10008;48.682;9.016;2023-12-20T10:21:23;5.80;99.90
3406;DHT22;10008;48.682;9.016;2023-12-20T10:23:50;5.70;99.90
3406;DHT22;10008;48.682;9.016;2023-12-20T10:26:22;5.70;99.90
3406;DHT22;10008;48.682;9.016;2023-12-20T10:28:54;5.70;99.90
3406;DHT22;10008;48.682;9.016;2023-12-20T10:31:30;5.70;99.90
3406;DHT22;10008;48.682;9.016;2023-12-20T10:34:00;5.60;99.90
3406;DHT22;10008;48.682;9.016;2023-12-20T10:36:27;5.60;99.90
3406;DHT22;10008;48.682;9.016;2023-12-20T10:38:54;5.50;99.90
3406;DHT22;10008;48.682;9.016;2023-12-20T10:41:26;5.50;99.90
3406;DHT22;10008;48.682;9.016;2023-12-20T10:43:58;5.50;99.90
3406;DHT22;10008;48.682;9.016;2023-12-20T10:46:25;5.50;99.90
3406;DHT22;10008;48.682;9.016;2023-12-20T10:48:53;5.50;99.90
3406;DHT22;10008;48.682;9.016;2023-12-20T10:51:20;5.60;99.90
3406;DHT22;10008;48.682;9.016;2023-12-20T10:53:47;5.70;99.90
3406;DHT22;10008;48.682;9.016;2023-12-20T10:56:19;5.80;99.90
3406;DHT22;10008;48.682;9.016;2023-12-20T10:58:46;5.80;99.90
3406;DHT22;10008;48.682;9.016;2023-12-20T11:01:18;5.70;99.90
3406;DHT22;10008;48.682;9.016;2023-12-20T11:03:54;5.60;99.90
3406;DHT22;10008;48.682;9.016;2023-12-20T11:12:01;5.80;99.90
3406;DHT22;10008;48.682;9.016;2023-12-20T11:14:43;5.70;99.90
3406;DHT22;10008;48.682;9.016;2023-12-20T11:17:12;5.70;99.90
3406;DHT22;10008;48.682;9.016;2023-12-20T11:22:29;5.60;99.90
3406;DHT22;10008;48.682;9.016;2023-12-20T11:25:04;5.70;99.90
3406;DHT22;10008;48.682;9.016;2023-12-20T11:27:32;5.80;99.90
3406;DHT22;10008;48.682;9.016;2023-12-20T11:29:58;5.90;99.90
3406;DHT22;10008;48.682;9.016;2023-12-20T11:35:20;5.90;99.90
3406;DHT22;10008;48.682;9.016;2023-12-20T11:37:46;5.80;99.90
3406;DHT22;10008;48.682;9.016;2023-12-20T11:40:18;5.80;99.90
3406;DHT22;10008;48.682;9.016;2023-12-20T11:42:45;5.70;99.90
3406;DHT22;10008;48.682;9.016;2023-12-20T11:45:15;5.60;99.90
3406;DHT22;10008;48.682;9.016;2023-12-20T11:47:46;5.70;99.90
3406;DHT22;10008;48.682;9.016;2023-12-20T11:50:12;5.60;99.90
3406;DHT22;10008;48.682;9.016;2023-12-20T11:52:38;5.60;99.90
3406;DHT22;10008;48.682;9.016;2023-12-20T11:55:04;5.60;99.90
3406;DHT22;10008;48.682;9.016;2023-12-20T11:57:31;5.50;99.90
3406;DHT22;10008;48.682;9.016;2023-12-20T11:59:57;5.50;99.90
3406;DHT22;10008;48.682;9.016;2023-12-20T12:02:22;5.50;99.90
3406;DHT22;10008;48.682;9.016;2023-12-20T12:04:52;5.50;99.90
3406;DHT22;10008;48.682;9.016;2023-12-20T12:07:18;5.40;99.90
3406;DHT22;10008;48.682;9.016;2023-12-20T12:09:44;5.40;99.90
3406;DHT22;10008;48.682;9.016;2023-12-20T12:12:12;5.30;99.90
3406;DHT22;10008;48.682;9.016;2023-12-20T12:14:38;5.50;99.90
3406;DHT22;10008;48.682;9.016;2023-12-20T12:17:13;5.40;99.90
3406;DHT22;10008;48.682;9.016;2023-12-20T12:19:43;5.50;99.90
3406;DHT22;10008;48.682;9.016;2023-12-20T12:22:15;5.60;99.90
3406;DHT22;10008;48.682;9.016;2023-12-20T12:24:46;5.70;99.90
3406;DHT22;10008;48.682;9.016;2023-12-20T12:27:13;5.70;99.90
3406;DHT22;10008;48.682;9.016;2023-12-20T12:29:39;5.70;99.90
3406;DHT22;10008;48.682;9.016;2023-12-20T12:32:08;5.70;99.90
3406;DHT22;10008;48.682;9.016;2023-12-20T12:34:35;5.70;99.90
3406;DHT22;10008;48.682;9.016;2023-12-20T12:37:01;5.80;99.90
3406;DHT22;10008;48.682;9.016;2023-12-20T12:39:28;5.70;99.90
3406;DHT22;10008;48.682;9.016;2023-12-20T12:41:55;5.70;99.90
3406;DHT22;10008;48.682;9.016;2023-12-20T12:44:21;6.10;99.90
3406;DHT22;10008;48.682;9.016;2023-12-20T12:46:49;5.90;99.90
3406;DHT22;10008;48.682;9.016;2023-12-20T12:49:22;5.90;99.90
3406;DHT22;10008;48.682;9.016;2023-12-20T12:51:47;6.00;99.90
3406;DHT22;10008;48.682;9.016;2023-12-20T12:54:13;6.30;99.90
3406;DHT22;10008;48.682;9.016;2023-12-20T12:56:41;6.40;99.90
3406;DHT22;10008;48.682;9.016;2023-12-20T12:59:08;6.30;99.90
3406;DHT22;10008;48.682;9.016;2023-12-20T13:01:34;6.20;99.90
3406;DHT22;10008;48.682;9.016;2023-12-20T13:03:59;6.20;99.90
3406;DHT22;10008;48.682;9.016;2023-12-20T13:06:28;6.10;99.90
3406;DHT22;10008;48.682;9.016;2023-12-20T13:08:54;6.20;99.90
3406;DHT22;10008;48.682;9.016;2023-12-20T13:11:20;6.20;99.90
3406;DHT22;10008;48.682;9.016;2023-12-20T13:13:46;6.10;99.90
3406;DHT22;10008;48.682;9.016;2023-12-20T13:16:12;6.00;99.90
3406;DHT22;10008;48.682;9.016;2023-12-20T13:18:38;6.00;99.90
3406;DHT22;10008;48.682;9.016;2023-12-20T13:21:08;6.10;99.90
3406;DHT22;10008;48.682;9.016;2023-12-20T13:23:34;6.10;99.90
3406;DHT22;10008;48.682;9.016;2023-12-20T13:26:00;6.20;99.90
3406;DHT22;10008;48.682;9.016;2023-12-20T13:28:25;6.40;99.90
3406;DHT22;10008;48.682;9.016;2023-12-20T13:30:51;6.50;99.90
3406;DHT22;10008;48.682;9.016;2023-12-20T13:33:17;6.50;99.90
3406;DHT22;10008;48.682;9.016;2023-12-20T13:35:42;6.30;99.90
3406;DHT22;10008;48.682;9.016;2023-12-20T13:38:08;6.20;99.90
3406;DHT22;10008;48.682;9.016;2023-12-20T13:40:34;6.10;99.90
3406;DHT22;10008;48.682;9.016;2023-12-20T13:43:00;6.50;99.90
3406;DHT22;10008;48.682;9.016;2023-12-20T13:45:25;6.80;99.90
3406;DHT22;10008;48.682;9.016;2023-12-20T13:47:51;6.60;99.90
3406;DHT22;10008;48.682;9.016;2023-12-20T13:50:17;6.30;99.90
3406;DHT22;10008;48.682;9.016;2023-12-20T13:52:42;6.40;99.90
3406;DHT22;10008;48.682;9.016;2023-12-20T13:55:09;6.30;99.90
3406;DHT22;10008;48.682;9.016;2023-12-20T13:57:35;6.10;99.90
3406;DHT22;10008;48.682;9.016;2023-12-20T14:00:04;5.90;99.90
3406;DHT22;10008;48.682;9.016;2023-12-20T14:02:32;5.80;99.90
3406;DHT22;10008;48.682;9.016;2023-12-20T14:04:58;5.80;99.90
3406;DHT22;10008;48.682;9.016;2023-12-20T14:07:24;5.70;99.90
3406;DHT22;10008;48.682;9.016;2023-12-20T14:09:50;5.70;99.90
3406;DHT22;10008;48.682;9.016;2023-12-20T14:12:15;5.70;99.90
3406;DHT22;10008;48.682;9.016;2023-12-20T14:14:41;5.70;99.90
3406;DHT22;10008;48.682;9.016;2023-12-20T14:17:07;5.70;99.90
3406;DHT22;10008;48.682;9.016;2023-12-20T14:19:33;5.70;99.90
3406;DHT22;10008;48.682;9.016;2023-12-20T14:21:58;5.70;99.90
3406;DHT22;10008;48.682;9.016;2023-12-20T14:24:28;5.70;99.90
3406;DHT22;10008;48.682;9.016;2023-12-20T14:26:54;5.60;99.90
3406;DHT22;10008;48.682;9.016;2023-12-20T14:29:20;5.60;99.90
3406;DHT22;10008;48.682;9.016;2023-12-20T14:31:45;5.60;99.90
3406;DHT22;10008;48.682;9.016;2023-12-20T14:34:11;5.60;99.90
3406;DHT22;10008;48.682;9.016;2023-12-20T14:36:37;5.60;99.90
3406;DHT22;10008;48.682;9.016;2023-12-20T14:39:03;5.50;99.90
3406;DHT22;10008;48.682;9.016;2023-12-20T14:41:30;5.30;99.90
3406;DHT22;10008;48.682;9.016;2023-12-20T14:43:56;5.20;99.90
3406;DHT22;10008;48.682;9.016;2023-12-20T14:46:21;5.20;99.90
3406;DHT22;10008;48.682;9.016;2023-12-20T14:48:47;5.10;99.90
3406;DHT22;10008;48.682;9.016;2023-12-20T14:51:15;5.00;99.90
3406;DHT22;10008;48.682;9.016;2023-12-20T14:53:40;5.10;99.90
3406;DHT22;10008;48.682;9.016;2023-12-20T14:56:08;5.00;99.90
3406;DHT22;10008;48.682;9.016;2023-12-20T14:58:33;5.00;99.90
3406;DHT22;10008;48.682;9.016;2023-12-20T15:01:00;4.90;99.90
3406;DHT22;10008;48.682;9.016;2023-12-20T15:03:26;4.90;99.90
3406;DHT22;10008;48.682;9.016;2023-12-20T15:05:52;4.90;99.90
3406;DHT22;10008;48.682;9.016;2023-12-20T15:08:17;4.90;99.90
3406;DHT22;10008;48.682;9.016;2023-12-20T15:10:43;4.80;99.90
3406;DHT22;10008;48.682;9.016;2023-12-20T15:13:09;4.80;99.90
3406;DHT22;10008;48.682;9.016;2023-12-20T15:15:34;4.80;99.90
3406;DHT22;10008;48.682;9.016;2023-12-20T15:18:00;5.20;99.90
3406;DHT22;10008;48.682;9.016;2023-12-20T15:20:26;4.70;99.90
3406;DHT22;10008;48.682;9.016;2023-12-20T15:22:52;4.70;99.90
3406;DHT22;10008;48.682;9.016;2023-12-20T15:25:19;5.10;99.90
3406;DHT22;10008;48.682;9.016;2023-12-20T15:27:48;4.60;99.90
3406;DHT22;10008;48.682;9.016;2023-12-20T15:30:21;4.60;99.90
3406;DHT22;10008;48.682;9.016;2023-12-20T15:32:48;4.60;99.90
3406;DHT22;10008;48.682;9.016;2023-12-20T15:35:14;5.40;99.90
3406;DHT22;10008;48.682;9.016;2023-12-20T15:37:40;4.60;99.90
3406;DHT22;10008;48.682;9.016;2023-12-20T15:40:09;4.80;99.90
3406;DHT22;10008;48.682;9.016;2023-12-20T15:42:39;4.60;99.90
3406;DHT22;10008;48.682;9.016;2023-12-20T15:45:06;4.60;99.90
3406;DHT22;10008;48.682;9.016;2023-12-20T15:47:33;4.60;99.90
3406;DHT22;10008;48.682;9.016;2023-12-20T15:49:59;4.60;99.90
3406;DHT22;10008;48.682;9.016;2023-12-20T15:52:24;4.60;99.90
3406;DHT22;10008;48.682;9.016;2023-12-20T15:54:50;4.60;99.90
3406;DHT22;10008;48.682;9.016;2023-12-20T15:57:16;4.60;99.90
3406;DHT22;10008;48.682;9.016;2023-12-20T15:59:42;4.60;99.90
3406;DHT22;10008;48.682;9.016;2023-12-20T16:02:07;4.60;99.90
3406;DHT22;10008;48.682;9.016;2023-12-20T16:04:33;4.70;99.90
3406;DHT22;10008;48.682;9.016;2023-12-20T16:07:00;4.70;99.90
3406;DHT22;10008;48.682;9.016;2023-12-20T16:09:26;4.70;99.90